Webcam Rollhalt 06

Webcam Rollhalt 24

 

Flugplatz - Wetter - Augsburg

[Quelle: ADDS]
METAR
EDMA 160350Z AUTO 11003KT 3500 // NCD 11/11 Q1021 =
EDMA 151700Z 1518/1603 23003KT CAVOK BECMG 1601/1603 1500 BCFG
TAF
EDMA 151700Z 1518/1603 23003KT CAVOK BECMG 1601/1603 1500 BCFG =
SR / SS: 04:55 / 17:29 UTC (Augsburg 2019-09-16)

Flugplatz - Wetter - Laupheim

[Quelle: ADDS]
METAR
ETHL 160338Z 22002KT 0800 FG FEW050 14/13 Q1021 AMB =
TAF
SR / SS: 04:59 / 17:33 UTC (Laupheim 2019-09-16)

Flugplatz - Wetter - Memmingen

[Quelle: ADDS]
METAR
EDJA 160350Z VRB01KT CAVOK 12/11 Q1022 =
EDJA 151700Z 1518/1603 22005KT CAVOK
TAF
EDJA 151700Z 1518/1603 22005KT CAVOK =
SR / SS: 04:57 / 17:31 UTC (Memmingen 2019-09-16)

Flugplatz - Wetter - Neuburg/Donau

[Quelle: ADDS]
METAR
ETSN 160410Z 16002KT 0100 FG FEW300 10/09 Q1021 RED =
ETSN 160110Z 1602/1611 25003KT 9999 MIFG FEW030 SCT300 TEMPO 1602/1609 VRB03KT 3000 MIFG BKN280 PROB30 1602/1608 VRB01KT 0500 FG SCT280 BY ETGL
TAF
ETSN 160110Z 1602/1611 25003KT 9999 MIFG FEW030 SCT300 TEMPO 1602/1609 VRB03KT 3000 MIFG BKN280 PROB30 1602/1608 VRB01KT 0500 FG SCT280 BY ETGL =
SR / SS: 04:53 / 17:27 UTC (Neuburg 2019-09-16)

Flugplatz - Wetter - Stuttgart

[Quelle: ADDS]
METAR
EDDS 160350Z VRB01KT 9999 BCFG FEW001 12/12 Q1021 =
EDDS 152300Z 1600/1624 VRB02KT CAVOK BECMG 1609/1611 32006KT BECMG 1618/1620 VRB03KT
TAF
EDDS 152300Z 1600/1624 VRB02KT CAVOK BECMG 1609/1611 32006KT BECMG 1618/1620 VRB03KT =
SR / SS: 05:01 / 17:35 UTC (Stuttgart 2019-09-16)

Flugplatz - Wetter - Niederstetten

[Quelle: ADDS]
METAR
ETHN 160320Z 27002KT 9999 FEW380 11/10 Q1021 BLU+ =
TAF
SR / SS: 04:59 / 17:34 UTC (Niederstetten 2019-09-16)